Time;durP1;ratioP1;P1;durP2;ratioP2;P2;SDS_P1;SDS_P2;PMS_P1;PMS_P2;Temp;Humidity;BMP_temperature;BMP_pressure;BME280_temperature;BME280_humidity;BME280_pressure;Samples;Min_cycle;Max_cycle;Signal;HPM_P1;HPM_P2
2023/05/19 00:02:19;;;;;;;6.57;4.75;;;;;;;11.77;100.00;101019.25;5548445;32;34134;-74
2023/05/19 00:05:26;;;;;;;11.05;5.37;;;;;;;11.67;100.00;101023.81;5548809;32;34720;-73
2023/05/19 00:08:31;;;;;;;7.50;5.20;;;;;;;11.63;100.00;101019.81;5548694;32;34731;-73
2023/05/19 00:11:38;;;;;;;9.18;5.25;;;;;;;11.63;100.00;101015.34;5548848;32;33604;-73
2023/05/19 00:14:42;;;;;;;7.68;5.28;;;;;;;11.61;100.00;101020.00;5548676;32;33811;-73
2023/05/19 00:17:46;;;;;;;6.40;5.32;;;;;;;11.59;100.00;101011.34;5548595;32;33799;-73
2023/05/19 00:20:51;;;;;;;9.00;5.82;;;;;;;11.59;100.00;101018.47;5548907;32;33642;-73
2023/05/19 00:23:55;;;;;;;8.48;5.62;;;;;;;11.62;100.00;101021.62;5548530;32;34389;-73
2023/05/19 00:26:58;;;;;;;8.35;5.72;;;;;;;11.68;100.00;101020.19;5548611;32;33745;-73
2023/05/19 00:30:03;;;;;;;10.65;5.53;;;;;;;11.67;100.00;101022.00;5548263;32;35145;-73
2023/05/19 00:33:08;;;;;;;8.88;5.40;;;;;;;11.74;100.00;101007.13;5547891;32;34631;-73
2023/05/19 00:36:13;;;;;;;10.10;5.68;;;;;;;11.72;100.00;101014.41;5548561;32;33901;-73
2023/05/19 00:39:17;;;;;;;7.43;5.53;;;;;;;11.75;100.00;101014.13;5548440;32;33886;-73
2023/05/19 00:42:24;;;;;;;6.70;5.30;;;;;;;11.77;100.00;101008.62;5548349;32;34854;-72
2023/05/19 00:45:30;;;;;;;7.72;5.25;;;;;;;11.67;100.00;100995.41;5548543;32;33646;-73
2023/05/19 00:48:35;;;;;;;8.35;4.80;;;;;;;11.56;100.00;100995.72;5548482;32;33567;-72
2023/05/19 00:51:40;;;;;;;9.32;4.65;;;;;;;11.53;100.00;101005.81;5548377;32;33948;-72
2023/05/19 00:54:45;;;;;;;6.30;5.12;;;;;;;11.53;100.00;100988.03;5548081;32;34127;-72
2023/05/19 00:57:50;;;;;;;6.82;5.30;;;;;;;11.49;100.00;100994.69;5548332;32;34274;-72
2023/05/19 01:01:02;;;;;;;6.90;5.15;;;;;;;11.39;100.00;101001.94;5548290;32;33783;-72
2023/05/19 01:04:09;;;;;;;7.72;4.78;;;;;;;11.37;100.00;101000.44;5548004;32;35126;-72
2023/05/19 01:07:15;;;;;;;8.50;5.15;;;;;;;11.32;100.00;101004.41;5548242;32;33769;-72
2023/05/19 01:10:20;;;;;;;13.23;5.07;;;;;;;11.26;100.00;101005.03;5548158;32;33587;-72
2023/05/19 01:13:25;;;;;;;6.62;5.00;;;;;;;11.21;100.00;101002.00;5547281;32;33773;-71
2023/05/19 01:16:57;;;;;;;7.20;5.37;;;;;;;11.17;100.00;100998.00;5548201;32;33962;-71
2023/05/19 01:20:15;;;;;;;6.85;5.07;;;;;;;11.17;100.00;100989.19;5548130;32;34627;-72
2023/05/19 01:23:41;;;;;;;7.53;5.35;;;;;;;11.13;100.00;100993.16;5547169;32;33834;-71
2023/05/19 01:27:10;;;;;;;7.78;5.57;;;;;;;11.16;100.00;100992.84;5548105;32;34596;-71
2023/05/19 01:30:36;;;;;;;9.98;5.95;;;;;;;11.14;100.00;100994.78;5547196;32;34539;-71
2023/05/19 01:33:42;;;;;;;8.32;5.78;;;;;;;11.10;100.00;100999.59;5548080;32;34630;-72
2023/05/19 01:36:48;;;;;;;7.72;5.97;;;;;;;11.13;100.00;100999.31;5548118;32;33874;-71
2023/05/19 01:39:54;;;;;;;8.05;6.15;;;;;;;11.18;100.00;101006.81;5547870;32;33837;-71
2023/05/19 01:43:00;;;;;;;7.72;6.45;;;;;;;11.18;100.00;101002.28;5546998;32;33659;-71
2023/05/19 01:46:05;;;;;;;10.65;6.45;;;;;;;11.19;100.00;100987.19;5547941;32;33847;-71
2023/05/19 01:49:10;;;;;;;12.80;6.53;;;;;;;11.22;100.00;100994.88;5547769;32;34511;-71
2023/05/19 01:52:14;;;;;;;10.77;6.32;;;;;;;11.20;100.00;100987.06;5547873;32;33801;-71
2023/05/19 01:55:20;;;;;;;7.12;6.43;;;;;;;11.21;100.00;100988.72;5547585;32;33773;-71
2023/05/19 01:58:44;;;;;;;7.47;6.40;;;;;;;11.19;100.00;100990.69;5547807;32;34332;-71
2023/05/19 02:01:52;;;;;;;10.65;6.40;;;;;;;11.19;100.00;100995.16;5547765;32;33982;-71
2023/05/19 02:05:05;;;;;;;10.82;7.22;;;;;;;11.18;100.00;100988.22;5547573;32;33824;-71
2023/05/19 02:08:26;;;;;;;9.20;6.82;;;;;;;11.32;100.00;100990.28;5547520;32;34192;-71
2023/05/19 02:11:46;;;;;;;9.65;7.15;;;;;;;11.26;100.00;100989.09;5547592;32;33687;-71
2023/05/19 02:15:05;;;;;;;13.02;7.30;;;;;;;11.24;100.00;100984.91;5547523;32;34527;-71
2023/05/19 02:18:11;;;;;;;8.55;6.80;;;;;;;11.19;100.00;100995.16;5546656;32;34469;-71
2023/05/19 02:21:16;;;;;;;9.05;7.50;;;;;;;11.18;100.00;100994.31;5547553;32;33918;-71
2023/05/19 02:24:21;;;;;;;10.40;7.35;;;;;;;11.21;100.00;100994.03;5547455;32;34588;-71
2023/05/19 02:27:25;;;;;;;11.35;7.62;;;;;;;11.26;100.00;100988.25;5547499;32;33900;-71
2023/05/19 02:30:30;;;;;;;10.77;7.20;;;;;;;11.23;100.00;100993.88;5547318;32;34336;-71
2023/05/19 02:33:36;;;;;;;11.18;7.75;;;;;;;11.20;100.00;100994.19;5547261;32;33950;-71
2023/05/19 02:36:44;;;;;;;12.63;8.15;;;;;;;11.19;100.00;101000.47;5547149;32;33935;-71
2023/05/19 02:39:48;;;;;;;11.45;7.53;;;;;;;11.17;100.00;101000.66;5547126;32;34207;-71
2023/05/19 02:42:53;;;;;;;13.57;7.85;;;;;;;11.17;100.00;100992.69;5547150;32;33698;-71
2023/05/19 02:45:57;;;;;;;12.88;8.73;;;;;;;11.18;100.00;101002.28;5547049;32;34113;-71
2023/05/19 02:49:02;;;;;;;10.00;7.68;;;;;;;11.16;100.00;101006.09;5547026;32;33723;-71
2023/05/19 02:52:06;;;;;;;13.45;7.85;;;;;;;11.21;100.00;100995.84;5547016;32;33834;-71
2023/05/19 02:55:15;;;;;;;9.32;7.93;;;;;;;11.22;100.00;100992.22;5548948;32;34458;-71
2023/05/19 02:58:19;;;;;;;10.48;7.65;;;;;;;11.18;100.00;100993.53;5549285;32;33891;-71
2023/05/19 03:01:23;;;;;;;13.27;8.50;;;;;;;11.18;100.00;100990.88;5548690;32;33579;-71
2023/05/19 03:04:28;;;;;;;12.73;8.73;;;;;;;11.15;100.00;100991.16;5549198;32;33815;-71
2023/05/19 03:07:32;;;;;;;12.90;8.50;;;;;;;11.17;100.00;100986.53;5549251;32;33808;-71
2023/05/19 03:10:37;;;;;;;12.93;9.32;;;;;;;11.17;100.00;100991.84;5549154;32;33900;-71
2023/05/19 03:13:41;;;;;;;11.68;8.57;;;;;;;11.17;100.00;100998.00;5549164;32;33789;-71
2023/05/19 03:16:45;;;;;;;12.05;8.38;;;;;;;11.15;100.00;100994.66;5549183;32;33789;-71
2023/05/19 03:19:50;;;;;;;11.63;8.27;;;;;;;11.17;100.00;100997.16;5549166;32;33578;-71
2023/05/19 03:22:54;;;;;;;12.13;8.40;;;;;;;11.18;100.00;100996.97;5549027;32;34027;-71
2023/05/19 03:26:00;;;;;;;14.32;8.63;;;;;;;11.24;100.00;100992.87;5549062;32;33912;-71
2023/05/19 03:29:04;;;;;;;15.48;8.80;;;;;;;11.26;100.00;101004.19;5549062;32;33902;-72
2023/05/19 03:32:09;;;;;;;11.32;8.57;;;;;;;11.28;100.00;101003.03;5548423;32;34470;-71
2023/05/19 03:35:13;;;;;;;14.90;8.60;;;;;;;11.38;100.00;101008.22;5548890;32;33880;-71
2023/05/19 03:38:18;;;;;;;10.93;8.13;;;;;;;11.48;100.00;101000.97;5548977;32;33585;-71
2023/05/19 03:41:22;;;;;;;11.75;8.27;;;;;;;11.50;100.00;100999.00;5548703;32;34101;-72
2023/05/19 03:44:27;;;;;;;11.25;8.27;;;;;;;11.56;100.00;101006.34;5548819;32;34649;-71
2023/05/19 03:47:31;;;;;;;10.75;8.02;;;;;;;11.65;100.00;100996.59;5548008;32;34467;-71
2023/05/19 03:50:36;;;;;;;11.12;8.23;;;;;;;11.69;100.00;101003.25;5548859;32;33881;-71
2023/05/19 03:53:41;;;;;;;16.87;8.98;;;;;;;11.73;100.00;101002.78;5548367;32;33981;-71
2023/05/19 03:56:47;;;;;;;10.63;8.15;;;;;;;11.90;100.00;101006.34;5548680;32;33975;-71
2023/05/19 03:59:51;;;;;;;10.95;7.87;;;;;;;11.97;100.00;101007.38;5548747;32;34295;-71
2023/05/19 04:02:56;;;;;;;10.98;8.13;;;;;;;11.97;100.00;101003.88;5548807;32;34150;-71
2023/05/19 04:06:01;;;;;;;18.40;8.32;;;;;;;12.04;100.00;101002.25;5548219;32;33902;-71
2023/05/19 04:09:11;;;;;;;9.27;8.27;;;;;;;12.01;100.00;101008.69;5548063;32;33807;-71
2023/05/19 04:12:18;;;;;;;10.23;7.87;;;;;;;12.08;100.00;101009.72;5548133;32;34738;-71
2023/05/19 04:15:24;;;;;;;10.00;7.87;;;;;;;12.15;100.00;101013.37;5548446;32;33829;-71
2023/05/19 04:18:30;;;;;;;9.15;7.90;;;;;;;12.23;100.00;101015.25;5547857;32;34498;-71
2023/05/19 04:21:35;;;;;;;11.45;8.52;;;;;;;12.29;100.00;101019.09;5548020;32;34537;-71
2023/05/19 04:24:40;;;;;;;12.05;8.65;;;;;;;12.33;100.00;101017.78;5548543;32;33717;-71
2023/05/19 04:27:44;;;;;;;10.30;8.30;;;;;;;12.44;100.00;101023.59;5548567;32;33964;-71
2023/05/19 04:30:49;;;;;;;9.38;8.38;;;;;;;12.45;100.00;101027.94;5547661;32;34327;-71
2023/05/19 04:33:52;;;;;;;11.00;8.40;;;;;;;12.54;100.00;101023.44;5548494;32;33803;-71
2023/05/19 04:36:57;;;;;;;11.90;8.68;;;;;;;12.66;100.00;101023.97;5548360;32;33865;-71
2023/05/19 04:40:01;;;;;;;15.05;8.80;;;;;;;12.54;100.00;101031.41;5548339;32;33931;-70
2023/05/19 04:43:06;;;;;;;11.48;8.43;;;;;;;12.67;100.00;101034.44;5548142;32;34919;-71
2023/05/19 04:46:10;;;;;;;11.43;8.88;;;;;;;12.92;100.00;101041.44;5548359;32;34068;-71
2023/05/19 04:49:18;;;;;;;10.32;8.77;;;;;;;12.97;100.00;101041.75;5548320;32;33978;-71
2023/05/19 04:52:21;;;;;;;11.40;8.77;;;;;;;13.17;100.00;101038.81;5548285;32;34269;-71
2023/05/19 04:55:25;;;;;;;10.73;7.90;;;;;;;13.38;100.00;101044.41;5548066;32;33701;-71
2023/05/19 04:58:29;;;;;;;12.77;8.80;;;;;;;13.59;100.00;101039.38;5542393;32;33906;-71
2023/05/19 05:01:33;;;;;;;12.18;8.48;;;;;;;13.80;100.00;101039.63;5547696;32;34043;-71
2023/05/19 05:04:41;;;;;;;11.52;8.50;;;;;;;13.87;100.00;101048.59;5547977;32;33795;-71
2023/05/19 05:07:45;;;;;;;13.07;8.75;;;;;;;14.13;100.00;101040.34;5547628;32;33784;-71
2023/05/19 05:10:51;;;;;;;11.30;8.50;;;;;;;14.14;100.00;101051.81;5547103;32;33813;-71
2023/05/19 05:13:59;;;;;;;10.73;8.40;;;;;;;13.91;100.00;101052.59;5547126;32;33920;-71
2023/05/19 05:17:03;;;;;;;12.57;8.52;;;;;;;14.37;100.00;101054.56;5546012;32;34519;-71
2023/05/19 05:20:08;;;;;;;12.82;7.97;;;;;;;14.77;100.00;101054.28;5547197;32;34622;-71
2023/05/19 05:23:13;;;;;;;12.57;8.18;;;;;;;14.98;100.00;101056.28;5547719;32;33955;-71
2023/05/19 05:26:18;;;;;;;12.63;8.38;;;;;;;14.58;100.00;101071.59;5546082;32;33909;-71
2023/05/19 05:29:22;;;;;;;11.23;8.07;;;;;;;15.00;100.00;101068.47;5545759;32;33717;-71
2023/05/19 05:32:26;;;;;;;11.20;8.07;;;;;;;15.01;100.00;101072.78;5542842;32;34480;-71
2023/05/19 05:35:30;;;;;;;12.95;8.95;;;;;;;15.20;100.00;101066.94;5546525;32;34501;-72
2023/05/19 05:38:35;;;;;;;12.02;7.90;;;;;;;15.36;100.00;101065.97;5545447;32;33759;-72
2023/05/19 05:41:38;;;;;;;10.93;7.80;;;;;;;15.60;100.00;101063.06;5543235;32;34295;-73
2023/05/19 05:44:44;;;;;;;13.50;7.95;;;;;;;15.42;100.00;101059.06;5547425;32;33675;-72
2023/05/19 05:47:47;;;;;;;12.77;8.23;;;;;;;15.89;100.00;101062.25;5547428;32;34265;-72
2023/05/19 05:50:53;;;;;;;8.80;7.15;;;;;;;16.02;100.00;101062.41;5546595;32;33767;-72
2023/05/19 05:53:59;;;;;;;11.60;8.30;;;;;;;16.41;100.00;101061.25;5547016;32;33879;-74
2023/05/19 05:57:05;;;;;;;10.82;8.10;;;;;;;16.07;100.00;101064.53;5547449;32;33907;-74
2023/05/19 06:00:14;;;;;;;10.50;7.32;;;;;;;15.28;100.00;101065.22;5536299;32;33954;-74
2023/05/19 06:03:17;;;;;;;10.70;8.95;;;;;;;15.66;100.00;101074.88;5535712;32;34607;-73
2023/05/19 06:06:21;;;;;;;11.07;7.07;;;;;;;15.50;100.00;101072.34;5540408;32;33867;-73
2023/05/19 06:09:27;;;;;;;11.18;6.50;;;;;;;15.71;100.00;101071.66;5539046;32;33837;-74
2023/05/19 06:12:31;;;;;;;11.52;7.00;;;;;;;15.65;100.00;101065.19;5539609;32;33825;-73
2023/05/19 06:15:35;;;;;;;9.68;6.45;;;;;;;15.81;100.00;101073.03;5536356;32;34132;-74
2023/05/19 06:18:39;;;;;;;8.27;6.43;;;;;;;16.04;100.00;101079.12;5540502;32;33765;-74
2023/05/19 06:21:43;;;;;;;11.60;6.90;;;;;;;16.06;100.00;101069.06;5538182;32;34785;-74
2023/05/19 06:24:47;;;;;;;9.65;7.07;;;;;;;16.30;100.00;101069.75;5530767;32;33795;-75
2023/05/19 06:27:51;;;;;;;9.18;6.87;;;;;;;16.70;100.00;101079.91;5546509;32;34539;-73
2023/05/19 06:30:56;;;;;;;8.07;6.55;;;;;;;16.80;100.00;101082.25;5547121;32;33831;-74
2023/05/19 06:34:00;;;;;;;10.05;6.37;;;;;;;16.88;100.00;101082.16;5546591;32;33725;-74
2023/05/19 06:37:03;;;;;;;12.93;6.45;;;;;;;16.73;100.00;101084.06;5537673;32;33905;-76
2023/05/19 06:40:09;;;;;;;10.60;6.85;;;;;;;16.39;100.00;101090.87;5530548;32;34205;-75
2023/05/19 06:43:12;;;;;;;7.50;6.72;;;;;;;16.29;100.00;101095.69;5535220;32;34810;-76
2023/05/19 06:46:16;;;;;;;11.30;6.80;;;;;;;16.42;100.00;101097.69;5539592;32;34115;-75
2023/05/19 06:49:21;;;;;;;7.78;6.32;;;;;;;16.75;100.00;101098.91;5528807;32;31226;-74
2023/05/19 06:52:25;;;;;;;11.27;6.72;;;;;;;16.89;100.00;101102.59;5535424;32;33970;-74
2023/05/19 06:55:31;;;;;;;9.07;7.15;;;;;;;17.03;100.00;101106.22;5545971;32;34500;-74
2023/05/19 06:58:34;;;;;;;8.40;6.47;;;;;;;17.23;100.00;101110.72;5545180;32;33607;-74
2023/05/19 07:01:38;;;;;;;10.38;6.70;;;;;;;17.59;100.00;101109.78;5542980;32;33938;-75
2023/05/19 07:04:42;;;;;;;12.70;6.80;;;;;;;17.23;100.00;101108.03;5545650;32;33533;-74
2023/05/19 07:07:46;;;;;;;9.45;6.22;;;;;;;17.87;100.00;101115.13;5546023;32;33892;-73
2023/05/19 07:10:54;;;;;;;11.38;5.90;;;;;;;18.52;100.00;101120.84;5542700;32;34191;-72
2023/05/19 07:14:00;;;;;;;9.40;6.62;;;;;;;18.58;100.00;101109.31;5545132;32;34913;-73
2023/05/19 07:17:25;;;;;;;9.55;6.80;;;;;;;18.60;100.00;101106.41;5530113;32;34632;-73
2023/05/19 07:20:29;;;;;;;13.88;8.18;;;;;;;18.91;100.00;101116.62;5526852;32;34499;-73
2023/05/19 07:23:33;;;;;;;11.60;7.07;;;;;;;18.50;100.00;101114.81;5526912;32;33964;-72
2023/05/19 07:26:37;;;;;;;13.52;7.30;;;;;;;19.20;100.00;101113.56;5526524;32;33637;-71
2023/05/19 07:29:41;;;;;;;9.88;7.00;;;;;;;19.85;100.00;101106.47;5526517;32;33695;-72
2023/05/19 07:32:45;;;;;;;14.32;6.82;;;;;;;20.36;100.00;101098.47;5535288;32;33773;-72
2023/05/19 07:35:50;;;;;;;7.90;6.70;;;;;;;21.10;100.00;101105.91;5526757;32;33112;-71
2023/05/19 07:38:54;;;;;;;9.52;6.43;;;;;;;21.19;100.00;101101.94;5525833;32;34144;-72
2023/05/19 07:41:58;;;;;;;9.98;5.78;;;;;;;20.22;100.00;101092.28;5529793;32;33784;-71
2023/05/19 07:45:02;;;;;;;6.47;4.40;;;;;;;20.53;100.00;101088.00;5532816;32;33687;-71
2023/05/19 07:48:05;;;;;;;6.90;3.97;;;;;;;22.09;87.58;101095.88;5548563;32;34038;-71
2023/05/19 07:51:10;;;;;;;8.77;3.85;;;;;;;22.06;92.03;101093.63;5548328;32;34196;-72
2023/05/19 07:54:15;;;;;;;9.07;4.10;;;;;;;22.68;80.82;101096.12;5548480;32;34514;-73
2023/05/19 07:57:19;;;;;;;5.20;3.30;;;;;;;22.52;81.32;101093.03;5548598;32;34846;-69
2023/05/19 08:00:22;;;;;;;5.43;2.95;;;;;;;23.02;79.40;101091.91;5548557;32;34056;-71
2023/05/19 08:03:29;;;;;;;6.75;3.65;;;;;;;22.28;75.92;101102.06;5544263;32;34804;-73
2023/05/19 08:06:34;;;;;;;6.15;3.20;;;;;;;22.83;73.45;101093.88;5529014;32;34824;-70
2023/05/19 08:09:40;;;;;;;5.05;3.15;;;;;;;22.86;75.26;101091.53;5536690;32;35198;-71
2023/05/19 08:12:43;;;;;;;9.57;3.40;;;;;;;21.52;82.78;101086.28;5548053;32;33866;-71
2023/05/19 08:15:47;;;;;;;3.50;2.47;;;;;;;23.15;75.46;101089.81;5548258;32;34520;-70
2023/05/19 08:18:51;;;;;;;6.78;3.35;;;;;;;22.96;69.68;101078.25;5544839;32;33947;-71
2023/05/19 08:21:56;;;;;;;4.85;3.08;;;;;;;21.44;86.41;101081.16;5547982;32;34519;-70
2023/05/19 08:25:00;;;;;;;5.10;3.00;;;;;;;21.79;88.10;101077.87;5547493;32;33740;-73
2023/05/19 08:28:04;;;;;;;4.50;3.03;;;;;;;22.48;80.96;101081.03;5531769;32;33892;-73
2023/05/19 08:31:07;;;;;;;5.95;3.17;;;;;;;21.33;86.19;101075.66;5529024;32;33633;-71
2023/05/19 08:34:13;;;;;;;7.82;3.42;;;;;;;20.37;97.58;101081.25;5528411;32;33944;-71
2023/05/19 08:37:16;;;;;;;5.35;3.10;;;;;;;20.63;100.00;101080.28;5528273;32;34250;-74
2023/05/19 08:40:20;;;;;;;10.40;2.92;;;;;;;20.44;99.31;101073.97;5547766;32;34783;-72
2023/05/19 08:43:23;;;;;;;4.80;2.50;;;;;;;22.19;83.76;101075.59;5542820;32;33860;-71
2023/05/19 08:46:27;;;;;;;3.80;2.55;;;;;;;23.45;77.27;101067.28;5531948;32;33587;-72
2023/05/19 08:49:35;;;;;;;3.33;2.42;;;;;;;22.85;72.84;101072.84;5546000;32;34676;-72
2023/05/19 08:52:51;;;;;;;3.47;2.20;;;;;;;;;;5538530;32;34578;-69
2023/05/19 08:56:08;;;;;;;4.10;2.10;;;;;;;25.21;59.68;101075.44;5544956;32;34782;-72
2023/05/19 08:59:16;;;;;;;2.87;1.90;;;;;;;25.08;57.81;101078.44;5540015;32;33901;-69
2023/05/19 09:02:21;;;;;;;6.62;2.15;;;;;;;24.37;61.03;101076.31;5533750;32;34536;-71
2023/05/19 09:05:24;;;;;;;5.22;2.25;;;;;;;24.57;59.63;101077.53;5528547;32;33942;-71
2023/05/19 09:08:28;;;;;;;3.85;2.20;;;;;;;24.98;58.98;101073.69;5528280;32;34293;-73
2023/05/19 09:11:34;;;;;;;5.55;2.10;;;;;;;26.65;52.75;101077.91;5528457;32;33911;-70
2023/05/19 09:14:38;;;;;;;3.42;2.00;;;;;;;25.69;58.38;101069.38;5528842;32;34152;-72
2023/05/19 09:17:43;;;;;;;6.70;2.65;;;;;;;25.17;56.13;101073.47;5528248;32;33589;-70
2023/05/19 09:20:46;;;;;;;6.12;2.40;;;;;;;24.89;59.07;101069.72;5547616;32;34106;-70
2023/05/19 09:23:51;;;;;;;5.75;2.33;;;;;;;24.09;58.87;101066.25;5548023;32;34647;-70
2023/05/19 09:26:58;;;;;;;7.28;2.67;;;;;;;23.51;62.51;101075.28;5547759;32;33769;-70
2023/05/19 09:30:09;;;;;;;7.57;2.70;;;;;;;22.72;68.36;101067.59;5547474;32;33438;-70
2023/05/19 09:33:18;;;;;;;4.97;2.62;;;;;;;22.13;71.42;101066.50;5546522;32;34298;-70
2023/05/19 09:36:21;;;;;;;2.72;2.30;;;;;;;22.72;70.05;101067.59;5547056;32;34771;-70
2023/05/19 09:39:25;;;;;;;3.40;2.30;;;;;;;21.87;79.05;101062.22;5547817;32;33834;-68
2023/05/19 09:42:29;;;;;;;4.72;2.67;;;;;;;22.44;71.44;101058.19;5547363;32;34404;-69
2023/05/19 09:45:32;;;;;;;5.03;2.80;;;;;;;21.96;74.52;101055.50;5547790;32;33789;-70
2023/05/19 09:48:36;;;;;;;3.85;2.50;;;;;;;22.61;76.88;101061.06;5547748;32;33570;-69
2023/05/19 09:51:40;;;;;;;4.95;2.30;;;;;;;21.83;72.90;101065.59;5548504;32;34657;-69
2023/05/19 09:54:44;;;;;;;5.40;2.45;;;;;;;20.88;79.03;101050.66;5547356;32;33806;-72
2023/05/19 09:57:50;;;;;;;6.22;2.65;;;;;;;20.77;81.30;101049.47;5547221;32;34470;-70
2023/05/19 10:00:55;;;;;;;3.60;2.60;;;;;;;20.78;82.41;101041.19;5545022;32;34208;-69
2023/05/19 10:03:59;;;;;;;6.87;2.67;;;;;;;20.74;83.38;101037.28;5539298;32;33939;-70
2023/05/19 10:07:05;;;;;;;7.90;2.55;;;;;;;22.00;79.61;101037.78;5531650;32;34451;-71
2023/05/19 10:10:10;;;;;;;4.53;2.50;;;;;;;24.08;61.35;101038.31;5533473;32;34002;-70
2023/05/19 10:13:15;;;;;;;5.50;2.53;;;;;;;24.51;61.08;101035.09;5528222;32;34628;-69
2023/05/19 10:16:20;;;;;;;3.87;2.70;;;;;;;25.08;57.39;101037.72;5526097;32;33809;-71
2023/05/19 10:19:26;;;;;;;7.70;2.80;;;;;;;24.02;61.47;101030.31;5528290;32;34302;-68
2023/05/19 10:22:32;;;;;;;3.85;2.85;;;;;;;24.17;61.10;101017.91;5527599;32;34066;-70
2023/05/19 10:25:37;;;;;;;5.45;2.60;;;;;;;24.06;61.83;101021.44;5527574;32;35946;-71
2023/05/19 10:28:43;;;;;;;3.28;2.28;;;;;;;23.14;63.61;101020.50;5529600;32;33905;-73
2023/05/19 10:31:51;;;;;;;4.30;2.80;;;;;;;25.04;60.90;101014.84;5536107;32;35412;-70
2023/05/19 10:35:11;;;;;;;6.05;2.92;;;;;;;24.95;58.34;101013.63;5545361;32;33599;-71
2023/05/19 10:38:28;;;;;;;6.35;2.70;;;;;;;25.46;54.81;101021.47;5534430;32;34651;-70
2023/05/19 10:41:40;;;;;;;6.22;2.58;;;;;;;25.55;55.19;101021.91;5527565;32;33902;-70
2023/05/19 10:45:12;;;;;;;5.43;2.62;;;;;;;24.26;57.64;101023.78;5528945;32;34158;-70
2023/05/19 10:48:18;;;;;;;10.80;3.83;;;;;;;23.98;60.59;101012.87;5528035;32;33762;-70
2023/05/19 10:51:32;;;;;;;4.50;2.20;;;;;;;26.53;54.57;101012.72;5527153;32;34271;-71
2023/05/19 10:54:46;;;;;;;4.70;1.85;;;;;;;28.36;45.96;101020.16;5527235;32;33743;-71
2023/05/19 10:57:59;;;;;;;5.85;2.12;;;;;;;26.77;50.00;101015.97;5527538;32;33645;-74
2023/05/19 11:01:08;;;;;;;2.80;1.70;;;;;;;28.92;44.59;101012.84;5526763;32;34161;-73
2023/05/19 11:04:12;;;;;;;6.07;2.12;;;;;;;29.95;41.94;101005.00;5529376;32;33927;-72
2023/05/19 11:07:21;;;;;;;6.40;2.47;;;;;;;26.36;47.76;101001.97;5535191;32;34319;-70
2023/05/19 11:10:24;;;;;;;3.60;2.50;;;;;;;23.78;56.63;100987.03;5537220;32;33972;-71
2023/05/19 11:13:27;;;;;;;4.28;2.00;;;;;;;23.31;59.32;100991.66;5534576;32;34664;-71
2023/05/19 11:16:31;;;;;;;4.90;2.22;;;;;;;25.71;51.69;100984.88;5536837;32;33637;-71
2023/05/19 11:19:36;;;;;;;7.37;2.10;;;;;;;27.12;49.56;100990.91;5539596;32;34492;-71
2023/05/19 11:22:39;;;;;;;3.33;1.90;;;;;;;31.04;42.05;100983.69;5535908;32;33701;-70
2023/05/19 11:25:47;;;;;;;6.35;1.90;;;;;;;32.37;37.94;100987.31;5535949;32;33985;-70
2023/05/19 11:28:51;;;;;;;5.55;2.10;;;;;;;31.21;37.35;100986.00;5537285;32;34707;-72
2023/05/19 11:31:55;;;;;;;7.10;1.98;;;;;;;28.65;41.39;100976.78;5537923;32;33892;-70
2023/05/19 11:34:59;;;;;;;7.85;2.25;;;;;;;27.41;45.56;100975.84;5533078;32;34337;-71
2023/05/19 11:38:02;;;;;;;4.47;1.92;;;;;;;24.51;52.24;100974.59;5538800;32;33570;-70
2023/05/19 11:41:06;;;;;;;6.57;2.30;;;;;;;23.28;56.75;100965.09;5544295;32;34685;-69
2023/05/19 11:44:10;;;;;;;7.82;2.60;;;;;;;22.63;60.93;100968.87;5542281;32;35057;-69
2023/05/19 11:47:15;;;;;;;4.78;2.30;;;;;;;22.64;59.82;100968.66;5532091;32;33787;-70
2023/05/19 11:50:19;;;;;;;3.42;2.22;;;;;;;23.72;63.11;100965.50;5535922;32;34995;-70
2023/05/19 11:53:22;;;;;;;4.47;2.30;;;;;;;25.37;53.51;100965.91;5538750;32;34430;-69
2023/05/19 11:56:25;;;;;;;5.03;2.03;;;;;;;28.51;45.62;100971.84;5527408;32;35453;-69
2023/05/19 11:59:31;;;;;;;4.62;2.20;;;;;;;30.79;41.40;100978.44;5529004;32;33898;-68
2023/05/19 12:02:37;;;;;;;6.43;2.17;;;;;;;33.10;35.41;100976.47;5531733;32;33859;-68
2023/05/19 12:05:45;;;;;;;4.15;1.80;;;;;;;31.80;36.87;100972.72;5529894;32;33883;-69
2023/05/19 12:08:55;;;;;;;5.62;2.20;;;;;;;34.44;33.45;100979.72;5528833;32;34594;-69
2023/05/19 12:11:59;;;;;;;4.57;1.73;;;;;;;36.88;30.81;100966.00;5535959;32;32629;-69
2023/05/19 12:15:03;;;;;;;5.85;1.80;;;;;;;33.39;34.74;100959.72;5534708;32;33874;-69
2023/05/19 12:18:06;;;;;;;2.50;1.90;;;;;;;34.80;33.32;100955.69;5532478;32;33876;-71
2023/05/19 12:21:10;;;;;;;5.35;1.62;;;;;;;34.84;32.30;100950.34;5537052;32;33702;-71
2023/05/19 12:24:13;;;;;;;4.22;1.50;;;;;;;33.47;33.55;100947.97;5537625;32;33589;-71
2023/05/19 12:27:18;;;;;;;6.32;1.95;;;;;;;33.24;33.98;100945.44;5540113;32;34611;-74
2023/05/19 12:30:28;;;;;;;3.53;1.75;;;;;;;29.93;38.36;100936.06;5535711;32;34814;-73
2023/05/19 12:33:33;;;;;;;6.32;1.70;;;;;;;29.42;40.64;100931.91;5537261;32;33705;-72
2023/05/19 12:36:39;;;;;;;2.05;1.55;;;;;;;28.27;42.96;100920.81;5534640;32;33508;-70
2023/05/19 12:39:43;;;;;;;2.17;1.75;;;;;;;30.65;39.21;100926.22;5536037;32;33908;-70
2023/05/19 12:42:47;;;;;;;6.53;2.10;;;;;;;32.35;36.09;100909.88;5537719;32;34468;-70
2023/05/19 12:45:51;;;;;;;6.22;1.95;;;;;;;35.37;32.57;100916.34;5541349;32;34452;-72
2023/05/19 12:48:59;;;;;;;3.55;1.80;;;;;;;37.49;28.62;100916.75;5537016;32;33911;-70
2023/05/19 12:52:02;;;;;;;5.43;1.60;;;;;;;35.01;31.49;100909.06;5538956;32;33921;-70
2023/05/19 12:55:13;;;;;;;8.07;1.80;;;;;;;36.14;29.70;100906.28;5554330;32;34453;-74
2023/05/19 12:58:16;;;;;;;4.50;1.60;;;;;;;34.37;32.03;100896.72;5567157;32;34153;-70
2023/05/19 13:01:22;;;;;;;4.15;1.52;;;;;;;33.51;34.80;100895.91;5553186;32;33776;-70
2023/05/19 13:04:26;;;;;;;3.42;1.80;;;;;;;35.10;31.60;100898.09;5530313;32;34197;-72
2023/05/19 13:07:29;;;;;;;4.78;1.77;;;;;;;36.41;29.36;100891.25;5532865;32;33282;-70
2023/05/19 13:10:34;;;;;;;3.08;1.40;;;;;;;33.01;33.69;100887.56;5538692;32;33856;-69
2023/05/19 13:13:38;;;;;;;5.35;1.65;;;;;;;31.49;36.84;100889.97;5529217;32;33912;-70
2023/05/19 13:16:41;;;;;;;3.00;1.50;;;;;;;35.33;30.47;100894.13;5537058;32;33582;-68
2023/05/19 13:19:44;;;;;;;4.45;2.20;;;;;;;35.40;30.76;100883.41;5535621;32;34027;-69
2023/05/19 13:22:49;;;;;;;3.30;1.60;;;;;;;35.22;30.43;100884.50;5538280;32;33844;-69
2023/05/19 13:25:52;;;;;;;3.92;1.62;;;;;;;37.85;27.28;100881.81;5539061;32;33694;-70
2023/05/19 13:28:55;;;;;;;3.03;1.60;;;;;;;34.39;30.18;100864.13;5545733;32;34049;-70
2023/05/19 13:31:59;;;;;;;3.22;1.30;;;;;;;36.21;29.24;100869.88;5541966;32;33983;-70
2023/05/19 13:35:04;;;;;;;3.55;1.67;;;;;;;38.22;26.58;100882.00;5538668;32;34435;-71
2023/05/19 13:38:09;;;;;;;3.60;1.62;;;;;;;33.83;31.26;100862.75;5543954;32;33938;-71
2023/05/19 13:41:12;;;;;;;4.12;1.55;;;;;;;31.14;37.91;100851.22;5533449;32;33862;-73
2023/05/19 13:44:17;;;;;;;7.43;1.60;;;;;;;32.93;33.53;100841.53;5532535;32;33603;-72
2023/05/19 13:47:22;;;;;;;7.68;2.25;;;;;;;35.49;30.72;100842.84;5534970;32;34379;-71
2023/05/19 13:50:25;;;;;;;3.58;1.55;;;;;;;31.02;36.41;100840.69;5546137;32;34617;-70
2023/05/19 13:53:29;;;;;;;9.20;2.00;;;;;;;30.48;37.75;100841.78;5545958;32;33686;-68
2023/05/19 13:56:33;;;;;;;25.05;7.90;;;;;;;29.85;38.69;100831.84;5547005;32;34068;-69
2023/05/19 13:59:36;;;;;;;5.20;2.12;;;;;;;27.45;42.45;100837.97;5546377;32;33848;-70
2023/05/19 14:02:55;;;;;;;1930.63;550.17;;;;;;;29.34;40.60;100834.88;5546972;32;34324;-70
2023/05/19 14:05:58;;;;;;;6.03;2.10;;;;;;;31.44;36.74;100824.22;5547139;32;34570;-69
2023/05/19 14:09:01;;;;;;;4.60;1.75;;;;;;;31.00;36.36;100831.91;5546852;32;34718;-69
2023/05/19 14:12:05;;;;;;;9.98;2.80;;;;;;;33.28;33.09;100833.69;5544947;32;33779;-70
2023/05/19 14:15:08;;;;;;;4.10;1.83;;;;;;;32.09;34.27;100832.59;5546612;32;33741;-69
2023/05/19 14:18:14;;;;;;;7.82;1.95;;;;;;;29.79;38.27;100834.63;5546023;32;32759;-69